createdAt,value
2018-06-20T00:01:09.352Z,3.03
2018-06-20T00:03:37.017Z,3.00
2018-06-20T00:06:04.646Z,3.20
2018-06-20T00:08:36.354Z,3.47
2018-06-20T00:11:03.973Z,3.27
2018-06-20T00:13:31.485Z,3.20
2018-06-20T00:15:59.089Z,3.70
2018-06-20T00:18:26.613Z,3.03
2018-06-20T00:20:54.204Z,4.33
2018-06-20T00:23:21.821Z,3.30
2018-06-20T00:25:49.447Z,4.30
2018-06-20T00:28:17.076Z,4.17
2018-06-20T00:30:44.683Z,4.23
2018-06-20T00:33:12.297Z,3.10
2018-06-20T00:35:39.907Z,3.37
2018-06-20T00:38:07.542Z,3.93
2018-06-20T00:40:35.192Z,4.07
2018-06-20T00:43:02.822Z,4.10
2018-06-20T00:45:30.362Z,3.60
2018-06-20T00:47:57.993Z,3.47
2018-06-20T00:50:25.493Z,3.13
2018-06-20T00:52:53.094Z,3.97
2018-06-20T00:55:26.070Z,3.10
2018-06-20T00:57:53.680Z,3.40
2018-06-20T01:00:21.362Z,3.70
2018-06-20T01:02:48.912Z,3.00
2018-06-20T01:05:16.622Z,3.30
2018-06-20T01:07:44.267Z,3.00
2018-06-20T01:10:11.889Z,3.07
2018-06-20T01:12:39.493Z,3.77
2018-06-20T01:15:07.144Z,3.40
2018-06-20T01:17:34.714Z,3.47
2018-06-20T01:20:02.458Z,3.40
2018-06-20T01:22:30.218Z,3.57
2018-06-20T01:24:57.797Z,3.30
2018-06-20T01:27:25.332Z,3.80
2018-06-20T01:29:52.993Z,4.30
2018-06-20T01:32:20.648Z,3.10
2018-06-20T01:34:48.248Z,4.23
2018-06-20T01:37:15.914Z,3.20
2018-06-20T01:39:43.606Z,3.37
2018-06-20T01:42:11.103Z,4.10
2018-06-20T01:44:38.775Z,2.90
2018-06-20T01:47:06.440Z,3.37
2018-06-20T01:49:34.125Z,3.47
2018-06-20T01:52:01.792Z,3.13
2018-06-20T01:54:29.458Z,4.13
2018-06-20T01:56:57.117Z,3.47
2018-06-20T01:59:24.765Z,3.80
2018-06-20T02:01:52.523Z,3.93
2018-06-20T02:04:20.148Z,3.17
2018-06-20T02:06:47.855Z,3.73
2018-06-20T02:09:15.493Z,3.40
2018-06-20T02:11:43.165Z,3.50
2018-06-20T02:14:11.761Z,4.47
2018-06-20T02:16:39.293Z,4.17
2018-06-20T02:19:06.819Z,4.97
2018-06-20T02:21:34.493Z,3.40
2018-06-20T02:24:02.129Z,3.93
2018-06-20T02:26:29.825Z,3.67
2018-06-20T02:28:57.364Z,5.07
2018-06-20T02:31:25.045Z,5.13
2018-06-20T02:33:52.689Z,3.77
2018-06-20T02:36:25.708Z,4.30
2018-06-20T02:38:53.366Z,3.73
2018-06-20T02:41:20.991Z,4.13
2018-06-20T02:43:48.610Z,4.00
2018-06-20T02:46:16.262Z,5.10
2018-06-20T02:48:43.944Z,4.37
2018-06-20T02:51:11.550Z,5.27
2018-06-20T02:53:39.209Z,4.23
2018-06-20T02:56:06.849Z,4.40
2018-06-20T02:58:34.498Z,3.63
2018-06-20T03:01:02.265Z,3.23
2018-06-20T03:03:29.779Z,3.53
2018-06-20T03:05:57.369Z,4.33
2018-06-20T03:08:25.045Z,4.50
2018-06-20T03:10:52.652Z,3.53
2018-06-20T03:13:20.265Z,4.57
2018-06-20T03:15:47.749Z,3.90
2018-06-20T03:18:15.343Z,4.20
2018-06-20T03:20:42.857Z,5.13
2018-06-20T03:23:10.450Z,4.53
2018-06-20T03:25:38.085Z,3.97
2018-06-20T03:28:05.590Z,4.10
2018-06-20T03:30:33.121Z,4.07
2018-06-20T03:33:00.726Z,4.97
2018-06-20T03:35:28.350Z,3.80
2018-06-20T03:37:55.988Z,4.43
2018-06-20T03:40:23.625Z,4.67
2018-06-20T03:42:51.230Z,4.27
2018-06-20T03:45:18.856Z,3.43
2018-06-20T03:47:46.321Z,3.40
2018-06-20T03:50:13.859Z,3.83
2018-06-20T03:52:41.350Z,5.23
2018-06-20T03:55:08.875Z,4.63
2018-06-20T03:57:36.516Z,8.50
2018-06-20T04:00:04.275Z,6.87
2018-06-20T04:02:31.775Z,5.93
2018-06-20T04:04:59.305Z,7.10
2018-06-20T04:07:26.935Z,7.73
2018-06-20T04:09:54.595Z,5.30
2018-06-20T04:12:22.100Z,5.45
2018-06-20T04:14:49.751Z,7.00
2018-06-20T04:17:17.315Z,5.33
2018-06-20T04:19:44.953Z,6.13
2018-06-20T04:22:12.596Z,5.10
2018-06-20T04:24:40.232Z,5.33
2018-06-20T04:27:07.892Z,5.40
2018-06-20T04:29:35.394Z,4.93
2018-06-20T04:32:03.046Z,5.73
2018-06-20T04:34:30.720Z,5.90
2018-06-20T04:36:58.214Z,5.57
2018-06-20T04:39:26.003Z,5.20
2018-06-20T04:41:53.674Z,4.87
2018-06-20T04:44:21.259Z,4.90
2018-06-20T04:46:48.799Z,5.43
2018-06-20T04:49:16.385Z,4.90
2018-06-20T04:51:44.030Z,4.37
2018-06-20T04:54:11.566Z,5.07
2018-06-20T04:56:39.245Z,4.30
2018-06-20T04:59:06.785Z,4.40
2018-06-20T05:01:34.479Z,3.90
2018-06-20T05:04:02.099Z,3.87
2018-06-20T05:06:29.731Z,5.37
2018-06-20T05:08:57.380Z,5.43
2018-06-20T05:11:24.865Z,4.17
2018-06-20T05:13:52.524Z,4.67
2018-06-20T05:16:20.116Z,4.70
2018-06-20T05:18:47.653Z,4.63
2018-06-20T05:21:15.256Z,4.33
2018-06-20T05:23:42.785Z,5.30
2018-06-20T05:26:10.376Z,5.43
2018-06-20T05:28:38.052Z,4.17
2018-06-20T05:31:05.679Z,5.80
2018-06-20T05:33:33.314Z,4.83
2018-06-20T05:36:00.844Z,4.00
2018-06-20T05:38:28.393Z,4.20
2018-06-20T05:40:56.055Z,4.10
2018-06-20T05:43:23.750Z,3.17
2018-06-20T05:45:51.499Z,3.80
2018-06-20T05:48:19.281Z,3.40
2018-06-20T05:50:47.271Z,4.33
2018-06-20T05:53:14.886Z,4.13
2018-06-20T05:55:42.540Z,4.43
2018-06-20T05:58:10.151Z,3.57
2018-06-20T06:00:37.875Z,3.40
2018-06-20T06:03:05.490Z,4.67
2018-06-20T06:05:33.001Z,4.20
2018-06-20T06:08:05.856Z,4.47
2018-06-20T06:10:33.456Z,4.10
2018-06-20T06:13:01.081Z,4.03
2018-06-20T06:15:28.641Z,3.10
2018-06-20T06:17:56.288Z,3.60
2018-06-20T06:20:23.945Z,3.70
2018-06-20T06:22:51.617Z,3.53
2018-06-20T06:25:19.249Z,3.40
2018-06-20T06:27:46.905Z,2.80
2018-06-20T06:30:14.595Z,2.60
2018-06-20T06:32:42.263Z,2.63
2018-06-20T06:35:09.926Z,2.13
2018-06-20T06:37:37.561Z,2.30
2018-06-20T06:40:05.127Z,2.43
2018-06-20T06:42:32.795Z,2.00
2018-06-20T06:45:00.518Z,2.00
2018-06-20T06:47:28.756Z,1.97
2018-06-20T06:49:56.432Z,1.90
2018-06-20T06:52:24.032Z,1.73
2018-06-20T06:54:51.716Z,1.80
2018-06-20T06:57:19.417Z,1.67
2018-06-20T06:59:47.092Z,1.67
2018-06-20T07:02:14.734Z,1.70
2018-06-20T07:04:42.288Z,1.57
2018-06-20T07:07:10.003Z,1.60
2018-06-20T07:09:37.652Z,1.60
2018-06-20T07:12:05.371Z,1.90
2018-06-20T07:14:32.977Z,1.70
2018-06-20T07:17:00.596Z,1.60
2018-06-20T07:19:28.255Z,1.60
2018-06-20T07:21:55.923Z,1.60
2018-06-20T07:24:23.660Z,1.50
2018-06-20T07:26:51.246Z,1.70
2018-06-20T07:29:18.956Z,1.30
2018-06-20T07:31:46.507Z,1.80
2018-06-20T07:34:14.295Z,1.30
2018-06-20T07:36:41.830Z,1.50
2018-06-20T07:39:09.446Z,1.40
2018-06-20T07:41:37.190Z,1.40
2018-06-20T07:44:04.896Z,1.67
2018-06-20T07:46:32.436Z,1.40
2018-06-20T07:49:00.103Z,1.33
2018-06-20T07:51:27.742Z,1.23
2018-06-20T07:53:55.368Z,1.77
2018-06-20T07:56:22.998Z,1.70
2018-06-20T07:58:57.376Z,1.40
2018-06-20T08:03:41.832Z,1.53
2018-06-20T08:06:15.073Z,1.30
2018-06-20T08:08:48.303Z,1.33
2018-06-20T08:11:21.537Z,1.30
2018-06-20T08:13:54.737Z,1.50
2018-06-20T08:16:27.928Z,1.40
2018-06-20T08:19:01.061Z,1.50
2018-06-20T08:21:28.802Z,1.37
2018-06-20T08:23:56.422Z,1.40
2018-06-20T08:26:24.048Z,1.63
2018-06-20T08:28:51.678Z,1.27
2018-06-20T08:31:19.253Z,1.43
2018-06-20T08:33:46.758Z,1.70
2018-06-20T08:36:14.361Z,1.70
2018-06-20T08:38:41.878Z,1.50
2018-06-20T08:41:09.406Z,1.50
2018-06-20T08:43:37.086Z,1.50
2018-06-20T08:46:04.621Z,1.70
2018-06-20T08:48:32.233Z,1.47
2018-06-20T08:50:59.882Z,1.50
2018-06-20T08:53:27.410Z,1.20
2018-06-20T08:55:55.057Z,1.50
2018-06-20T08:58:22.664Z,1.30
2018-06-20T09:00:56.059Z,1.10
2018-06-20T09:03:23.710Z,1.20
2018-06-20T09:05:56.888Z,1.40
2018-06-20T09:08:30.082Z,1.10
2018-06-20T09:11:03.414Z,1.37
2018-06-20T09:15:40.278Z,1.50
2018-06-20T09:18:13.453Z,1.37
2018-06-20T09:20:41.068Z,1.30
2018-06-20T09:23:08.667Z,1.33
2018-06-20T09:25:36.186Z,1.20
2018-06-20T09:28:03.842Z,1.13
2018-06-20T09:30:31.491Z,1.60
2018-06-20T09:32:59.187Z,1.40
2018-06-20T09:35:26.802Z,1.30
2018-06-20T09:37:54.461Z,1.20
2018-06-20T09:40:22.086Z,1.23
2018-06-20T09:42:49.661Z,1.27
2018-06-20T09:45:17.220Z,1.50
2018-06-20T09:47:44.887Z,1.03
2018-06-20T09:50:18.145Z,1.10
2018-06-20T09:52:45.752Z,1.10
2018-06-20T09:55:13.418Z,1.30
2018-06-20T09:57:41.138Z,1.10
2018-06-20T10:00:14.271Z,1.10
2018-06-20T10:02:47.517Z,1.30
2018-06-20T10:07:24.773Z,1.40
2018-06-20T10:10:57.640Z,1.30
2018-06-20T10:13:26.065Z,1.13
2018-06-20T10:15:53.552Z,1.37
2018-06-20T10:18:21.513Z,1.60
2018-06-20T10:20:49.171Z,1.43
2018-06-20T10:23:16.807Z,1.73
2018-06-20T10:25:44.318Z,1.50
2018-06-20T10:28:11.949Z,1.30
2018-06-20T10:30:39.561Z,1.37
2018-06-20T10:33:07.177Z,1.20
2018-06-20T10:35:34.803Z,1.20
2018-06-20T10:38:02.302Z,1.50
2018-06-20T10:40:29.906Z,1.40
2018-06-20T10:42:57.752Z,1.30
2018-06-20T10:45:30.945Z,1.40
2018-06-20T10:47:58.474Z,1.40
2018-06-20T10:50:26.161Z,1.30
2018-06-20T10:52:53.821Z,1.20
2018-06-20T10:55:21.411Z,0.97
2018-06-20T10:57:54.633Z,1.20
2018-06-20T11:00:27.938Z,1.30
2018-06-20T11:03:01.137Z,1.40
2018-06-20T11:05:34.266Z,1.30
2018-06-20T11:08:07.553Z,1.27
2018-06-20T11:10:40.663Z,1.40
2018-06-20T11:13:11.422Z,1.40
2018-06-20T11:15:39.103Z,1.30
2018-06-20T11:18:06.798Z,1.27
2018-06-20T11:20:39.921Z,1.53
2018-06-20T11:23:07.450Z,1.27
2018-06-20T11:25:34.976Z,1.20
2018-06-20T11:28:07.018Z,1.47
2018-06-20T11:30:34.646Z,1.47
2018-06-20T11:33:02.216Z,1.60
2018-06-20T11:35:29.859Z,1.40
2018-06-20T11:37:57.462Z,1.47
2018-06-20T11:40:25.154Z,1.10
2018-06-20T11:42:52.655Z,1.50
2018-06-20T11:45:20.296Z,1.53
2018-06-20T11:47:47.972Z,1.40
2018-06-20T11:50:15.693Z,1.23
2018-06-20T11:52:49.527Z,1.20
2018-06-20T11:55:23.197Z,1.40
2018-06-20T11:57:51.383Z,1.30
2018-06-20T12:00:25.082Z,1.37
2018-06-20T12:02:58.662Z,1.33
2018-06-20T12:06:32.437Z,1.33
2018-06-20T12:09:06.085Z,1.30
2018-06-20T12:14:18.754Z,1.20
2018-06-20T12:16:48.308Z,1.50
2018-06-20T12:19:22.749Z,1.20
2018-06-20T12:21:56.373Z,1.20
2018-06-20T12:24:29.747Z,1.60
2018-06-20T12:27:03.563Z,1.50
2018-06-20T12:29:37.349Z,1.50
2018-06-20T12:34:50.165Z,1.52
2018-06-20T12:37:24.197Z,1.70
2018-06-20T12:39:57.902Z,1.42
2018-06-20T12:42:31.807Z,1.20
2018-06-20T12:45:05.318Z,1.30
2018-06-20T12:47:39.383Z,1.40
2018-06-20T12:50:10.718Z,1.50
2018-06-20T12:52:38.445Z,1.47
2018-06-20T12:55:06.090Z,1.40
2018-06-20T12:57:33.778Z,1.35
2018-06-20T13:00:01.329Z,1.40
2018-06-20T13:02:28.972Z,1.42
2018-06-20T13:04:56.597Z,1.65
2018-06-20T13:07:24.242Z,1.37
2018-06-20T13:09:51.903Z,1.30
2018-06-20T13:12:19.417Z,1.27
2018-06-20T13:14:47.079Z,1.27
2018-06-20T13:17:15.064Z,1.25
2018-06-20T13:19:42.740Z,1.27
2018-06-20T13:22:10.259Z,1.30
2018-06-20T13:24:37.795Z,1.32
2018-06-20T13:27:05.404Z,1.20
2018-06-20T13:29:32.879Z,1.57
2018-06-20T13:32:06.214Z,1.50
2018-06-20T13:34:39.495Z,1.30
2018-06-20T13:37:12.694Z,1.20
2018-06-20T13:39:45.967Z,1.30
2018-06-20T13:42:18.939Z,1.30
2018-06-20T13:44:46.691Z,1.10
2018-06-20T13:47:19.854Z,1.30
2018-06-20T13:49:47.566Z,1.52
2018-06-20T13:52:15.309Z,1.00
2018-06-20T13:54:42.953Z,1.20
2018-06-20T13:57:10.596Z,1.12
2018-06-20T13:59:38.260Z,1.20
2018-06-20T14:02:05.842Z,1.05
2018-06-20T14:04:33.388Z,1.10
2018-06-20T14:07:01.112Z,0.85
2018-06-20T14:09:28.760Z,1.20
2018-06-20T14:11:56.388Z,1.20
2018-06-20T14:14:23.996Z,1.10
2018-06-20T14:16:51.571Z,1.30
2018-06-20T14:19:23.683Z,1.20
2018-06-20T14:21:51.193Z,1.00
2018-06-20T14:24:18.811Z,1.00
2018-06-20T14:26:46.344Z,0.90
2018-06-20T14:29:14.008Z,1.07
2018-06-20T14:31:47.270Z,1.17
2018-06-20T14:34:20.419Z,1.10
2018-06-20T14:36:53.681Z,0.93
2018-06-20T14:39:26.815Z,1.07
2018-06-20T14:42:00.077Z,0.98
2018-06-20T14:44:27.629Z,1.00
2018-06-20T14:46:55.154Z,1.10
2018-06-20T14:49:22.664Z,1.15
2018-06-20T14:51:50.314Z,1.10
2018-06-20T14:54:17.941Z,1.10
2018-06-20T14:56:45.690Z,1.40
2018-06-20T14:59:13.364Z,1.00
2018-06-20T15:01:41.134Z,1.70
2018-06-20T15:04:08.809Z,1.30
2018-06-20T15:06:36.498Z,1.30
2018-06-20T15:09:06.505Z,1.20
2018-06-20T15:11:34.087Z,1.20
2018-06-20T15:14:01.713Z,1.22
2018-06-20T15:16:34.830Z,1.40
2018-06-20T15:19:02.368Z,1.40
2018-06-20T15:21:30.001Z,1.10
2018-06-20T15:23:57.630Z,1.22
2018-06-20T15:26:30.695Z,1.77
2018-06-20T15:31:09.713Z,1.70
2018-06-20T15:33:42.835Z,1.35
2018-06-20T15:36:15.938Z,1.42
2018-06-20T15:38:43.658Z,1.50
2018-06-20T15:41:11.294Z,1.60
2018-06-20T15:43:38.909Z,1.42
2018-06-20T15:46:06.530Z,1.30
2018-06-20T15:48:34.639Z,1.70
2018-06-20T15:51:02.335Z,1.65
2018-06-20T15:53:29.828Z,1.45
2018-06-20T15:55:57.560Z,1.80
2018-06-20T15:58:25.193Z,1.57
2018-06-20T16:00:52.870Z,1.57
2018-06-20T16:03:21.178Z,1.52
2018-06-20T16:05:48.775Z,1.70
2018-06-20T16:08:16.404Z,1.30
2018-06-20T16:10:43.924Z,1.30
2018-06-20T16:13:11.619Z,1.57
2018-06-20T16:15:39.305Z,1.40
2018-06-20T16:18:06.879Z,1.60
2018-06-20T16:20:40.130Z,1.50
2018-06-20T16:23:13.508Z,1.45
2018-06-20T16:25:46.685Z,1.60
2018-06-20T16:28:19.991Z,1.50
2018-06-20T16:30:47.624Z,1.65
2018-06-20T16:33:15.331Z,1.70
2018-06-20T16:35:43.062Z,1.80
2018-06-20T16:38:10.623Z,1.57
2018-06-20T16:40:38.282Z,1.50
2018-06-20T16:43:05.794Z,1.70
2018-06-20T16:45:33.461Z,1.60
2018-06-20T16:48:01.034Z,1.50
2018-06-20T16:50:28.665Z,1.70
2018-06-20T16:52:56.290Z,1.50
2018-06-20T16:55:23.959Z,1.65
2018-06-20T16:57:51.454Z,1.57
2018-06-20T17:00:19.171Z,1.72
2018-06-20T17:02:46.718Z,1.50
2018-06-20T17:05:14.410Z,1.80
2018-06-20T17:07:41.979Z,1.50
2018-06-20T17:10:09.735Z,1.55
2018-06-20T17:12:43.110Z,1.50
2018-06-20T17:15:16.139Z,1.80
2018-06-20T17:17:49.363Z,1.70
2018-06-20T17:20:22.425Z,2.00
2018-06-20T17:22:55.464Z,1.70
2018-06-20T17:25:27.889Z,3.17
2018-06-20T17:27:55.475Z,3.10
2018-06-20T17:30:22.978Z,3.13
2018-06-20T17:32:50.791Z,3.13
2018-06-20T17:35:18.371Z,1.70
2018-06-20T17:37:46.038Z,1.67
2018-06-20T17:40:13.790Z,2.10
2018-06-20T17:42:41.510Z,1.70
2018-06-20T17:45:09.226Z,1.70
2018-06-20T17:47:36.920Z,1.80
2018-06-20T17:50:04.529Z,2.20
2018-06-20T17:52:32.026Z,1.97
2018-06-20T17:54:59.560Z,1.87
2018-06-20T17:57:27.274Z,2.30
2018-06-20T17:59:54.849Z,1.97
2018-06-20T18:02:22.649Z,2.20
2018-06-20T18:04:55.950Z,2.37
2018-06-20T18:07:29.171Z,2.03
2018-06-20T18:10:02.454Z,1.73
2018-06-20T18:12:35.682Z,2.13
2018-06-20T18:15:09.091Z,2.00
2018-06-20T18:17:36.735Z,2.03
2018-06-20T18:20:04.377Z,2.00
2018-06-20T18:22:32.131Z,2.60
2018-06-20T18:24:59.794Z,2.43
2018-06-20T18:27:27.455Z,2.07
2018-06-20T18:29:55.136Z,2.07
2018-06-20T18:32:22.819Z,1.83
2018-06-20T18:34:50.545Z,1.60
2018-06-20T18:37:18.244Z,2.10
2018-06-20T18:39:51.684Z,2.00
2018-06-20T18:42:19.316Z,2.00
2018-06-20T18:44:47.120Z,2.10
2018-06-20T18:47:20.365Z,2.20
2018-06-20T18:49:48.116Z,2.17
2018-06-20T18:52:15.669Z,2.20
2018-06-20T18:54:43.236Z,2.10
2018-06-20T18:57:16.385Z,1.83
2018-06-20T18:59:49.589Z,2.50
2018-06-20T19:02:22.781Z,2.33
2018-06-20T19:05:55.405Z,2.50
2018-06-20T19:08:28.751Z,2.43
2018-06-20T19:10:56.460Z,2.47
2018-06-20T19:13:24.405Z,2.17
2018-06-20T19:15:51.980Z,2.47
2018-06-20T19:18:19.662Z,2.50
2018-06-20T19:20:47.567Z,2.43
2018-06-20T19:23:15.254Z,2.60
2018-06-20T19:25:42.891Z,2.43
2018-06-20T19:28:10.577Z,2.67
2018-06-20T19:30:38.222Z,2.70
2018-06-20T19:33:05.734Z,2.40
2018-06-20T19:35:33.291Z,2.57
2018-06-20T19:38:00.803Z,2.70
2018-06-20T19:40:28.505Z,2.40
2018-06-20T19:42:56.002Z,2.47
2018-06-20T19:45:23.706Z,2.60
2018-06-20T19:47:51.210Z,2.70
2018-06-20T19:50:18.907Z,2.30
2018-06-20T19:52:46.461Z,2.80
2018-06-20T19:55:14.172Z,2.43
2018-06-20T19:57:41.835Z,2.50
2018-06-20T20:00:09.495Z,2.60
2018-06-20T20:02:37.182Z,2.73
2018-06-20T20:05:05.061Z,2.77
2018-06-20T20:07:32.726Z,3.10
2018-06-20T20:10:00.251Z,2.83
2018-06-20T20:12:27.946Z,2.83
2018-06-20T20:14:55.488Z,3.20
2018-06-20T20:17:23.212Z,3.03
2018-06-20T20:19:50.907Z,3.40
2018-06-20T20:22:18.458Z,2.83
2018-06-20T20:24:46.016Z,2.77
2018-06-20T20:27:13.627Z,3.20
2018-06-20T20:29:41.306Z,3.00
2018-06-20T20:32:22.605Z,2.93
2018-06-20T20:34:50.671Z,3.47
2018-06-20T20:37:18.841Z,3.67
2018-06-20T20:39:47.323Z,2.93
2018-06-20T20:42:15.231Z,3.77
2018-06-20T20:44:43.780Z,4.03
2018-06-20T20:47:11.922Z,3.33
2018-06-20T20:49:39.524Z,3.07
2018-06-20T20:52:08.327Z,3.83
2018-06-20T20:54:36.305Z,3.00
2018-06-20T20:57:04.732Z,3.20
2018-06-20T20:59:33.305Z,3.63
2018-06-20T21:02:03.351Z,4.17
2018-06-20T21:04:31.010Z,3.20
2018-06-20T21:06:59.381Z,3.20
2018-06-20T21:09:27.543Z,3.30
2018-06-20T21:11:55.725Z,3.77
2018-06-20T21:14:24.702Z,3.27
2018-06-20T21:16:53.475Z,3.70
2018-06-20T21:19:22.656Z,3.50
2018-06-20T21:21:51.097Z,2.80
2018-06-20T21:24:18.651Z,3.10
2018-06-20T21:26:46.333Z,4.10
2018-06-20T21:29:14.983Z,3.30
2018-06-20T21:31:43.600Z,4.17
2018-06-20T21:34:12.286Z,3.83
2018-06-20T21:36:40.171Z,3.43
2018-06-20T21:39:09.007Z,3.43
2018-06-20T21:41:37.502Z,3.00
2018-06-20T21:44:06.838Z,3.93
2018-06-20T21:46:35.236Z,3.60
2018-06-20T21:49:04.315Z,4.07
2018-06-20T21:51:32.627Z,4.50
2018-06-20T21:54:01.869Z,4.90
2018-06-20T21:56:30.674Z,3.80
2018-06-20T21:59:00.644Z,3.70
2018-06-20T22:01:30.021Z,4.30
2018-06-20T22:03:58.654Z,3.40
2018-06-20T22:06:27.037Z,3.93
2018-06-20T22:08:55.958Z,3.40
2018-06-20T22:11:24.220Z,3.63
2018-06-20T22:13:51.916Z,3.70
2018-06-20T22:16:19.425Z,3.50
2018-06-20T22:18:47.010Z,3.80
2018-06-20T22:21:14.636Z,4.33
2018-06-20T22:23:42.222Z,4.50
2018-06-20T22:26:09.738Z,3.80
2018-06-20T22:28:37.423Z,3.60
2018-06-20T22:31:05.092Z,4.30
2018-06-20T22:33:32.597Z,3.93
2018-06-20T22:36:00.307Z,3.90
2018-06-20T22:38:27.945Z,4.33
2018-06-20T22:40:55.466Z,4.30
2018-06-20T22:43:22.973Z,4.20
2018-06-20T22:45:50.527Z,4.60
2018-06-20T22:48:18.156Z,4.60
2018-06-20T22:50:45.686Z,4.40
2018-06-20T22:53:13.328Z,4.20
2018-06-20T22:55:40.985Z,3.80
2018-06-20T22:58:10.190Z,4.17
2018-06-20T23:00:37.865Z,3.97
2018-06-20T23:03:05.384Z,4.80
2018-06-20T23:05:33.017Z,4.30
2018-06-20T23:08:00.693Z,4.40
2018-06-20T23:10:28.322Z,4.40
2018-06-20T23:12:55.962Z,4.10
2018-06-20T23:15:23.590Z,4.60
2018-06-20T23:17:51.256Z,4.40
2018-06-20T23:20:18.806Z,4.30
2018-06-20T23:22:46.353Z,4.53
2018-06-20T23:25:13.877Z,4.80
2018-06-20T23:27:41.470Z,3.83
2018-06-20T23:30:09.163Z,4.20
2018-06-20T23:32:36.796Z,4.53
2018-06-20T23:35:04.551Z,4.63
2018-06-20T23:37:32.188Z,4.27
2018-06-20T23:39:59.890Z,4.17
2018-06-20T23:42:27.539Z,4.63
2018-06-20T23:44:55.182Z,4.80
2018-06-20T23:47:22.727Z,5.27
2018-06-20T23:49:50.333Z,4.50
2018-06-20T23:52:17.985Z,4.87
2018-06-20T23:54:45.466Z,4.63
2018-06-20T23:57:13.100Z,5.17
2018-06-20T23:59:40.715Z,4.57
